In Rescue
 
Open Full Screen Window  High Contrast Mode
Wind Gusting 00 knots
03
June 22, 2024 9:27 PM CDT
Weather Information
Wind Direction
  210 °
Wind Speed
  03 kt (3 mph)
Wind Gust
  00 kt (0 mph)
Altimeter
29.84 in
Visibility
10 SM
Temperature
22° C
72° F
Dewpoint
18° C
64° F
Humidity
78%
Sky Condition
Scattered @ 6,000 ft
VFR

METAR KJKJ 230227Z AUTO 21003KT 10SM SCT060 22/18 A2984 RMK AO2

FAA Disclaimer: The data displayed is for advisory purposes only and is not to be used for flight planning or operations.